createdAt,value
2018-07-11T00:01:37.820Z,18.80
2018-07-11T00:04:06.119Z,17.67
2018-07-11T00:06:34.392Z,19.07
2018-07-11T00:09:02.705Z,18.67
2018-07-11T00:11:30.981Z,17.40
2018-07-11T00:13:59.258Z,18.30
2018-07-11T00:16:27.529Z,18.23
2018-07-11T00:18:55.804Z,17.87
2018-07-11T00:21:24.111Z,19.57
2018-07-11T00:23:52.398Z,18.60
2018-07-11T00:26:20.689Z,19.77
2018-07-11T00:28:49.495Z,17.73
2018-07-11T00:31:17.772Z,18.80
2018-07-11T00:33:46.093Z,17.87
2018-07-11T00:36:14.412Z,18.70
2018-07-11T00:38:43.377Z,18.40
2018-07-11T00:41:11.688Z,19.77
2018-07-11T00:43:39.993Z,19.87
2018-07-11T00:46:08.264Z,18.53
2018-07-11T00:48:36.576Z,19.20
2018-07-11T00:51:05.084Z,20.27
2018-07-11T00:53:33.796Z,19.40
2018-07-11T00:56:02.560Z,20.73
2018-07-11T00:58:45.049Z,18.90
2018-07-11T01:01:14.504Z,19.53
2018-07-11T01:03:45.204Z,20.03
2018-07-11T01:06:13.468Z,19.27
2018-07-11T01:08:42.186Z,19.07
2018-07-11T01:11:17.137Z,19.47
2018-07-11T01:13:46.743Z,21.30
2018-07-11T01:16:16.171Z,19.20
2018-07-11T01:19:03.121Z,19.30
2018-07-11T01:21:32.179Z,19.57
2018-07-11T01:24:00.484Z,19.07
2018-07-11T01:26:31.962Z,22.17
2018-07-11T01:29:00.260Z,19.23
2018-07-11T01:31:28.539Z,19.33
2018-07-11T01:33:57.359Z,20.57
2018-07-11T01:36:26.032Z,18.13
2018-07-11T01:38:54.507Z,20.93
2018-07-11T01:41:22.805Z,19.80
2018-07-11T01:43:51.174Z,19.17
2018-07-11T01:46:19.520Z,20.07
2018-07-11T01:48:47.829Z,19.47
2018-07-11T01:51:16.103Z,19.40
2018-07-11T01:53:44.384Z,18.20
2018-07-11T01:56:12.696Z,19.00
2018-07-11T01:58:43.819Z,19.33
2018-07-11T02:01:12.130Z,19.10
2018-07-11T02:03:40.428Z,19.10
2018-07-11T02:06:08.738Z,20.07
2018-07-11T02:08:37.045Z,18.80
2018-07-11T02:11:05.369Z,19.00
2018-07-11T02:13:33.681Z,19.93
2018-07-11T02:16:02.005Z,21.37
2018-07-11T02:18:30.740Z,21.27
2018-07-11T02:20:59.948Z,19.03
2018-07-11T02:23:34.625Z,20.20
2018-07-11T02:26:02.932Z,20.70
2018-07-11T02:28:31.312Z,21.03
2018-07-11T02:30:59.627Z,20.30
2018-07-11T02:33:27.934Z,19.73
2018-07-11T02:35:56.241Z,19.33
2018-07-11T02:38:24.540Z,20.23
2018-07-11T02:40:52.812Z,18.97
2018-07-11T02:43:21.116Z,19.60
2018-07-11T02:45:49.432Z,20.60
2018-07-11T02:48:17.725Z,19.87
2018-07-11T02:50:46.025Z,20.37
2018-07-11T02:53:21.847Z,21.03
2018-07-11T02:55:51.024Z,20.37
2018-07-11T02:58:19.501Z,18.97
2018-07-11T03:00:48.216Z,19.30
2018-07-11T03:03:16.679Z,19.27
2018-07-11T03:05:45.157Z,22.60
2018-07-11T03:08:14.682Z,21.30
2018-07-11T03:10:42.981Z,19.30
2018-07-11T03:13:11.233Z,21.33
2018-07-11T03:15:39.497Z,21.83
2018-07-11T03:18:07.761Z,19.93
2018-07-11T03:20:36.245Z,19.83
2018-07-11T03:23:04.676Z,21.00
2018-07-11T03:25:32.987Z,20.93
2018-07-11T03:28:01.287Z,19.97
2018-07-11T03:30:29.539Z,20.90
2018-07-11T03:32:57.852Z,20.00
2018-07-11T03:35:26.112Z,18.97
2018-07-11T03:37:54.388Z,21.70
2018-07-11T03:40:22.716Z,21.27
2018-07-11T03:42:51.047Z,20.20
2018-07-11T03:45:19.309Z,20.63
2018-07-11T03:47:47.604Z,20.10
2018-07-11T03:50:15.896Z,20.53
2018-07-11T03:52:44.147Z,19.93
2018-07-11T03:55:12.412Z,19.50
2018-07-11T03:57:40.876Z,20.37
2018-07-11T04:00:09.180Z,19.77
2018-07-11T04:02:37.439Z,19.67
2018-07-11T04:05:05.770Z,19.63
2018-07-11T04:07:34.027Z,20.27
2018-07-11T04:10:02.297Z,20.17
2018-07-11T04:12:30.596Z,21.00
2018-07-11T04:14:58.965Z,19.17
2018-07-11T04:17:27.238Z,19.80
2018-07-11T04:19:55.560Z,18.80
2018-07-11T04:22:23.804Z,19.47
2018-07-11T04:24:52.104Z,18.93
2018-07-11T04:27:20.634Z,19.37
2018-07-11T04:29:48.949Z,18.23
2018-07-11T04:32:17.271Z,17.63
2018-07-11T04:34:45.578Z,16.80
2018-07-11T04:37:13.869Z,16.53
2018-07-11T04:39:42.164Z,14.50
2018-07-11T04:42:10.468Z,14.90
2018-07-11T04:44:38.731Z,15.47
2018-07-11T04:47:07.033Z,16.87
2018-07-11T04:49:35.301Z,16.20
2018-07-11T04:52:03.614Z,15.07
2018-07-11T04:54:31.917Z,15.13
2018-07-11T04:57:00.232Z,13.90
2018-07-11T04:59:28.499Z,13.50
2018-07-11T05:01:56.780Z,15.07
2018-07-11T05:04:25.052Z,14.77
2018-07-11T05:06:53.425Z,15.30
2018-07-11T05:09:21.683Z,13.57
2018-07-11T05:11:49.927Z,12.70
2018-07-11T05:14:18.203Z,12.33
2018-07-11T05:16:46.438Z,12.00
2018-07-11T05:19:14.688Z,12.70
2018-07-11T05:21:42.940Z,12.17
2018-07-11T05:24:11.190Z,13.10
2018-07-11T05:26:39.455Z,12.70
2018-07-11T05:29:07.703Z,11.77
2018-07-11T05:31:35.942Z,11.27
2018-07-11T05:34:04.204Z,10.13
2018-07-11T05:36:32.461Z,10.20
2018-07-11T05:39:00.900Z,10.83
2018-07-11T05:41:29.356Z,10.07
2018-07-11T05:43:58.128Z,9.97
2018-07-11T05:46:26.402Z,10.07
2018-07-11T05:48:54.668Z,10.20
2018-07-11T05:51:22.919Z,9.20
2018-07-11T05:53:51.168Z,9.07
2018-07-11T05:56:19.441Z,8.40
2018-07-11T05:58:47.687Z,7.70
2018-07-11T06:01:15.953Z,7.50
2018-07-11T06:03:44.190Z,7.07
2018-07-11T06:06:12.455Z,6.30
2018-07-11T06:08:40.735Z,6.43
2018-07-11T06:11:19.024Z,6.53
2018-07-11T06:13:47.261Z,6.13
2018-07-11T06:16:15.526Z,6.03
2018-07-11T06:18:43.805Z,6.17
2018-07-11T06:21:12.064Z,6.10
2018-07-11T06:23:40.317Z,5.50
2018-07-11T06:26:08.560Z,5.33
2018-07-11T06:28:36.812Z,5.00
2018-07-11T06:31:05.424Z,4.90
2018-07-11T06:33:33.934Z,4.63
2018-07-11T06:36:02.144Z,4.77
2018-07-11T06:38:30.424Z,4.23
2018-07-11T06:40:58.664Z,3.83
2018-07-11T06:43:26.917Z,4.00
2018-07-11T06:45:55.237Z,3.70
2018-07-11T06:48:23.624Z,4.00
2018-07-11T06:50:51.892Z,4.27
2018-07-11T06:53:20.204Z,3.60
2018-07-11T06:55:48.454Z,4.13
2018-07-11T06:58:16.708Z,4.00
2018-07-11T07:00:44.986Z,3.50
2018-07-11T07:03:13.241Z,3.97
2018-07-11T07:05:41.491Z,3.40
2018-07-11T07:08:09.751Z,3.30
2018-07-11T07:10:38.028Z,3.20
2018-07-11T07:13:06.357Z,3.20
2018-07-11T07:15:34.625Z,3.00
2018-07-11T07:18:02.902Z,3.20
2018-07-11T07:20:31.163Z,3.33
2018-07-11T07:22:59.408Z,3.37
2018-07-11T07:25:27.720Z,3.43
2018-07-11T07:27:55.981Z,3.47
2018-07-11T07:30:24.237Z,3.30
2018-07-11T07:32:52.490Z,3.67
2018-07-11T07:35:20.764Z,3.40
2018-07-11T07:37:49.034Z,3.80
2018-07-11T07:40:17.297Z,3.07
2018-07-11T07:42:45.552Z,3.27
2018-07-11T07:45:13.843Z,3.23
2018-07-11T07:47:44.119Z,3.53
2018-07-11T07:50:12.897Z,3.10
2018-07-11T07:52:41.434Z,3.40
2018-07-11T07:55:10.157Z,3.43
2018-07-11T07:57:38.468Z,3.17
2018-07-11T08:00:06.909Z,2.97
2018-07-11T08:02:35.154Z,3.10
2018-07-11T08:05:05.343Z,2.83
2018-07-11T08:07:34.180Z,2.90
2018-07-11T08:10:02.463Z,3.37
2018-07-11T08:12:30.731Z,2.80
2018-07-11T08:14:58.995Z,3.10
2018-07-11T08:17:27.289Z,3.13
2018-07-11T08:19:55.538Z,3.67
2018-07-11T08:22:34.944Z,3.40
2018-07-11T08:25:14.483Z,3.70
2018-07-11T08:27:55.905Z,3.20
2018-07-11T08:30:36.354Z,2.93
2018-07-11T08:35:17.781Z,3.00
2018-07-11T08:37:57.860Z,3.17
2018-07-11T08:40:49.082Z,3.20
2018-07-11T08:43:26.808Z,3.10
2018-07-11T08:46:06.077Z,2.57
2018-07-11T08:50:45.654Z,2.90
2018-07-11T08:53:25.167Z,2.80
2018-07-11T08:56:09.985Z,2.70
2018-07-11T08:58:53.172Z,2.90
2018-07-11T09:01:31.298Z,2.47
2018-07-11T09:06:18.297Z,3.10
2018-07-11T09:08:56.884Z,3.27
2018-07-11T09:12:42.283Z,3.07
2018-07-11T09:15:24.520Z,3.00
2018-07-11T09:18:02.932Z,2.90
2018-07-11T09:21:46.865Z,2.97
2018-07-11T09:24:31.576Z,2.60
2018-07-11T09:26:59.836Z,2.83
2018-07-11T09:29:28.088Z,2.70
2018-07-11T09:31:56.396Z,2.90
2018-07-11T09:34:24.685Z,2.90
2018-07-11T09:36:53.255Z,3.23
2018-07-11T09:39:21.542Z,3.00
2018-07-11T09:41:49.821Z,3.23
2018-07-11T09:44:18.140Z,3.13
2018-07-11T09:46:46.472Z,2.93
2018-07-11T09:49:14.780Z,3.00
2018-07-11T09:51:43.085Z,2.70
2018-07-11T09:54:11.336Z,2.80
2018-07-11T09:56:39.718Z,2.90
2018-07-11T09:59:08.013Z,2.87
2018-07-11T10:01:36.308Z,2.80
2018-07-11T10:04:04.630Z,2.73
2018-07-11T10:06:32.944Z,2.70
2018-07-11T10:09:01.235Z,2.67
2018-07-11T10:11:29.505Z,2.60
2018-07-11T10:13:57.792Z,2.70
2018-07-11T10:16:26.053Z,2.90
2018-07-11T10:19:03.240Z,2.90
2018-07-11T10:21:32.462Z,3.20
2018-07-11T10:24:00.888Z,3.00
2018-07-11T10:26:29.168Z,2.67
2018-07-11T10:28:57.523Z,3.20
2018-07-11T10:31:26.644Z,3.40
2018-07-11T10:33:54.916Z,3.23
2018-07-11T10:36:23.188Z,3.10
2018-07-11T10:38:51.460Z,4.73
2018-07-11T10:41:19.732Z,2.80
2018-07-11T10:43:48.399Z,3.30
2018-07-11T10:46:16.637Z,2.80
2018-07-11T10:48:44.897Z,2.97
2018-07-11T10:51:13.147Z,2.60
2018-07-11T10:53:41.451Z,2.93
2018-07-11T10:56:09.703Z,2.73
2018-07-11T10:58:38.026Z,3.57
2018-07-11T11:01:06.371Z,3.10
2018-07-11T11:03:34.840Z,2.87
2018-07-11T11:06:03.240Z,2.83
2018-07-11T11:08:31.885Z,3.00
2018-07-11T11:11:00.200Z,3.10
2018-07-11T11:13:28.497Z,3.00
2018-07-11T11:15:57.187Z,3.07
2018-07-11T11:18:25.709Z,3.10
2018-07-11T11:20:55.251Z,3.30
2018-07-11T11:23:23.689Z,3.10
2018-07-11T11:25:52.008Z,3.20
2018-07-11T11:28:20.296Z,4.80
2018-07-11T11:30:48.553Z,4.90
2018-07-11T11:33:16.833Z,4.90
2018-07-11T11:35:45.137Z,5.47
2018-07-11T11:38:13.356Z,6.07
2018-07-11T11:40:41.606Z,5.67
2018-07-11T11:43:09.890Z,5.20
2018-07-11T11:45:38.177Z,4.67
2018-07-11T11:48:06.442Z,4.97
2018-07-11T11:50:34.844Z,4.50
2018-07-11T11:53:03.124Z,5.13
2018-07-11T11:55:31.412Z,5.00
2018-07-11T11:58:00.037Z,5.23
2018-07-11T12:00:28.309Z,5.50
2018-07-11T12:02:56.573Z,4.90
2018-07-11T12:05:24.815Z,5.40
2018-07-11T12:07:53.071Z,5.43
2018-07-11T12:10:21.319Z,5.20
2018-07-11T12:12:49.564Z,5.17
2018-07-11T12:15:17.817Z,5.57
2018-07-11T12:17:46.083Z,5.43
2018-07-11T12:20:14.340Z,5.90
2018-07-11T12:22:42.641Z,6.20
2018-07-11T12:25:10.917Z,5.90
2018-07-11T12:27:40.016Z,5.73
2018-07-11T12:30:08.291Z,6.17
2018-07-11T12:32:36.569Z,5.83
2018-07-11T12:35:11.264Z,6.43
2018-07-11T12:37:45.790Z,6.50
2018-07-11T12:40:14.063Z,6.83
2018-07-11T12:42:42.364Z,6.00
2018-07-11T12:45:10.620Z,5.63
2018-07-11T12:49:45.129Z,5.67
2018-07-11T12:52:13.416Z,6.27
2018-07-11T12:54:41.836Z,5.57
2018-07-11T12:57:10.545Z,5.67
2018-07-11T12:59:38.921Z,5.10
2018-07-11T13:02:07.281Z,5.60
2018-07-11T13:04:35.595Z,5.83
2018-07-11T13:07:04.193Z,5.47
2018-07-11T13:09:32.633Z,5.63
2018-07-11T13:12:01.247Z,5.10
2018-07-11T13:14:29.500Z,5.33
2018-07-11T13:16:57.779Z,4.67
2018-07-11T13:19:26.068Z,4.70
2018-07-11T13:21:54.351Z,5.07
2018-07-11T13:24:22.608Z,4.90
2018-07-11T13:26:50.876Z,5.10
2018-07-11T13:29:19.160Z,5.93
2018-07-11T13:31:47.472Z,5.50
2018-07-11T13:34:15.728Z,6.10
2018-07-11T13:36:44.029Z,5.30
2018-07-11T13:39:20.444Z,4.67
2018-07-11T13:41:49.500Z,5.60
2018-07-11T13:44:17.812Z,5.20
2018-07-11T13:46:46.393Z,4.70
2018-07-11T13:49:14.657Z,4.57
2018-07-11T13:51:42.945Z,4.53
2018-07-11T13:54:11.692Z,4.57
2018-07-11T13:56:40.020Z,5.03
2018-07-11T13:59:08.307Z,4.27
2018-07-11T14:01:36.620Z,4.70
2018-07-11T14:04:04.883Z,3.63
2018-07-11T14:06:33.278Z,3.63
2018-07-11T14:09:01.584Z,3.67
2018-07-11T14:11:29.879Z,3.70
2018-07-11T14:13:58.199Z,3.73
2018-07-11T14:16:26.418Z,3.90
2018-07-11T14:18:54.701Z,3.90
2018-07-11T14:21:23.009Z,3.77
2018-07-11T14:23:51.468Z,4.30
2018-07-11T14:26:19.788Z,4.60
2018-07-11T14:28:49.996Z,4.00
2018-07-11T14:31:27.368Z,4.20
2018-07-11T14:33:55.668Z,4.20
2018-07-11T14:36:23.993Z,4.20
2018-07-11T14:38:52.245Z,3.87
2018-07-11T14:41:20.550Z,4.80
2018-07-11T14:43:48.921Z,4.40
2018-07-11T14:46:18.229Z,4.20
2018-07-11T14:48:46.541Z,4.23
2018-07-11T14:51:14.929Z,4.43
2018-07-11T14:53:43.173Z,4.33
2018-07-11T14:56:11.468Z,5.43
2018-07-11T14:58:39.752Z,5.23
2018-07-11T15:01:08.076Z,6.03
2018-07-11T15:03:36.771Z,6.50
2018-07-11T15:06:05.077Z,6.33
2018-07-11T15:08:33.473Z,6.13
2018-07-11T15:11:01.728Z,6.47
2018-07-11T15:13:30.017Z,7.10
2018-07-11T15:15:58.263Z,6.80
2018-07-11T15:18:26.572Z,6.90
2018-07-11T15:20:54.880Z,6.20
2018-07-11T15:23:23.195Z,6.77
2018-07-11T15:25:51.481Z,6.73
2018-07-11T15:28:19.779Z,6.63
2018-07-11T15:30:48.089Z,7.43
2018-07-11T15:33:16.365Z,7.50
2018-07-11T15:35:44.777Z,7.97
2018-07-11T15:38:13.102Z,7.07
2018-07-11T15:40:41.403Z,7.70
2018-07-11T15:43:09.720Z,8.60
2018-07-11T15:45:38.297Z,6.70
2018-07-11T15:48:06.569Z,7.30
2018-07-11T15:50:34.960Z,7.10
2018-07-11T15:53:03.302Z,7.47
2018-07-11T15:55:32.068Z,7.27
2018-07-11T15:58:06.177Z,7.23
2018-07-11T16:00:37.012Z,8.43
2018-07-11T16:03:05.837Z,7.20
2018-07-11T16:05:37.261Z,7.50
2018-07-11T16:08:05.792Z,6.37
2018-07-11T16:10:44.713Z,6.60
2018-07-11T16:13:12.984Z,7.17
2018-07-11T16:15:41.474Z,5.93
2018-07-11T16:18:09.963Z,6.57
2018-07-11T16:20:38.663Z,6.17
2018-07-11T16:23:07.876Z,5.43
2018-07-11T16:25:36.433Z,5.37
2018-07-11T16:28:05.604Z,5.70
2018-07-11T16:30:33.867Z,6.20
2018-07-11T16:33:02.659Z,5.83
2018-07-11T16:35:30.973Z,5.07
2018-07-11T16:37:59.260Z,5.90
2018-07-11T16:40:28.117Z,5.83
2018-07-11T16:42:56.400Z,5.67
2018-07-11T16:45:25.895Z,6.40
2018-07-11T16:47:54.763Z,6.47
2018-07-11T16:50:23.453Z,6.13
2018-07-11T16:52:51.906Z,6.03
2018-07-11T16:55:20.212Z,5.77
2018-07-11T16:57:49.817Z,6.10
2018-07-11T17:00:21.724Z,6.43
2018-07-11T17:02:53.328Z,6.33
2018-07-11T17:05:22.018Z,6.33
2018-07-11T17:07:52.028Z,6.10
2018-07-11T17:10:21.513Z,5.97
2018-07-11T17:13:12.528Z,6.57
2018-07-11T17:15:45.462Z,7.70
2018-07-11T17:18:33.735Z,6.97
2018-07-11T17:21:05.526Z,6.20
2018-07-11T17:23:34.351Z,7.37
2018-07-11T17:26:02.989Z,7.13
2018-07-11T17:28:31.317Z,6.10
2018-07-11T17:30:59.760Z,6.50
2018-07-11T17:33:28.033Z,7.13
2018-07-11T17:35:56.341Z,7.07
2018-07-11T17:38:27.333Z,7.13
2018-07-11T17:40:56.424Z,7.13
2018-07-11T17:43:33.610Z,7.30
2018-07-11T17:46:02.736Z,6.90
2018-07-11T17:48:39.184Z,7.27
2018-07-11T17:51:14.412Z,6.80
2018-07-11T17:53:45.506Z,6.30
2018-07-11T17:56:14.421Z,6.50
2018-07-11T17:58:51.586Z,6.83
2018-07-11T18:01:19.894Z,6.57
2018-07-11T18:03:58.428Z,6.53
2018-07-11T18:06:36.531Z,6.27
2018-07-11T18:09:09.788Z,6.07
2018-07-11T18:11:57.439Z,5.87
2018-07-11T18:14:33.992Z,6.27
2018-07-11T18:18:19.268Z,6.37
2018-07-11T18:23:05.340Z,5.27
2018-07-11T18:27:45.165Z,5.33
2018-07-11T18:30:23.560Z,5.13
2018-07-11T18:33:02.101Z,5.10
2018-07-11T18:35:39.139Z,5.00
2018-07-11T18:38:19.564Z,5.27
2018-07-11T18:40:55.647Z,5.17
2018-07-11T18:43:36.933Z,5.10
2018-07-11T18:46:12.408Z,4.83
2018-07-11T18:48:49.804Z,4.70
2018-07-11T18:51:24.364Z,4.70
2018-07-11T18:54:03.005Z,5.00
2018-07-11T18:56:48.250Z,5.03
2018-07-11T18:59:28.084Z,4.83
2018-07-11T19:02:05.992Z,4.90
2018-07-11T19:06:47.982Z,4.87
2018-07-11T19:09:56.096Z,4.20
2018-07-11T19:12:30.684Z,4.33
2018-07-11T19:15:14.581Z,4.40
2018-07-11T19:18:19.442Z,4.57
2018-07-11T19:21:08.800Z,4.40
2018-07-11T19:23:47.891Z,4.13
2018-07-11T19:26:26.795Z,4.20
2018-07-11T19:29:10.965Z,4.37
2018-07-11T19:33:56.243Z,4.10
2018-07-11T19:36:42.261Z,4.10
2018-07-11T19:39:23.228Z,4.27
2018-07-11T19:41:56.975Z,4.00
2018-07-11T19:44:50.686Z,4.30
2018-07-11T19:47:40.324Z,4.47
2018-07-11T19:52:21.724Z,3.87
2018-07-11T19:55:01.952Z,4.40
2018-07-11T19:57:30.249Z,3.90
2018-07-11T19:59:58.508Z,4.00
2018-07-11T20:02:26.828Z,3.70
2018-07-11T20:04:55.104Z,3.97
2018-07-11T20:07:23.408Z,3.87
2018-07-11T20:09:51.736Z,3.70
2018-07-11T20:12:20.045Z,4.37
2018-07-11T20:14:48.349Z,3.90
2018-07-11T20:17:16.602Z,4.50
2018-07-11T20:19:44.887Z,3.90
2018-07-11T20:22:13.168Z,4.00
2018-07-11T20:24:41.468Z,4.00
2018-07-11T20:27:09.772Z,4.20
2018-07-11T20:29:38.064Z,3.90
2018-07-11T20:32:06.355Z,4.20
2018-07-11T20:34:34.600Z,4.30
2018-07-11T20:37:02.850Z,4.73
2018-07-11T20:39:31.144Z,5.10
2018-07-11T20:41:59.400Z,4.77
2018-07-11T20:44:27.673Z,5.20
2018-07-11T20:46:55.927Z,5.17
2018-07-11T20:49:29.420Z,5.50
2018-07-11T20:51:57.709Z,5.13
2018-07-11T20:54:25.959Z,5.07
2018-07-11T20:56:54.213Z,4.90
2018-07-11T20:59:33.512Z,4.73
2018-07-11T21:02:13.057Z,5.10
2018-07-11T21:04:51.252Z,4.77
2018-07-11T21:07:32.392Z,5.07
2018-07-11T21:10:13.410Z,5.13
2018-07-11T21:12:59.626Z,5.33
2018-07-11T21:15:43.180Z,5.60
2018-07-11T21:19:16.929Z,6.00
2018-07-11T21:21:45.167Z,5.77
2018-07-11T21:24:13.800Z,5.77
2018-07-11T21:26:42.067Z,6.00
2018-07-11T21:29:10.340Z,6.50
2018-07-11T21:31:38.591Z,6.63
2018-07-11T21:34:06.881Z,6.10
2018-07-11T21:36:35.145Z,6.10
2018-07-11T21:39:04.713Z,6.10
2018-07-11T21:41:33.079Z,6.07
2018-07-11T21:44:01.328Z,6.13
2018-07-11T21:46:29.607Z,6.33
2018-07-11T21:48:57.873Z,5.90
2018-07-11T21:51:26.131Z,5.90
2018-07-11T21:53:54.398Z,6.30
2018-07-11T21:56:22.664Z,6.30
2018-07-11T21:58:50.970Z,6.23
2018-07-11T22:01:19.233Z,5.90
2018-07-11T22:03:47.494Z,5.93
2018-07-11T22:06:15.779Z,6.10
2018-07-11T22:08:44.021Z,6.67
2018-07-11T22:11:12.302Z,6.00
2018-07-11T22:13:40.581Z,6.53
2018-07-11T22:16:08.854Z,6.60
2018-07-11T22:18:39.079Z,6.10
2018-07-11T22:21:07.380Z,6.70
2018-07-11T22:23:34.592Z,6.70
2018-07-11T22:26:01.952Z,6.13
2018-07-11T22:28:29.220Z,6.30
2018-07-11T22:30:56.467Z,5.83
2018-07-11T22:33:23.761Z,5.93
2018-07-11T22:35:50.973Z,6.20
2018-07-11T22:38:18.178Z,6.77
2018-07-11T22:40:45.728Z,6.20
2018-07-11T22:43:12.941Z,6.33
2018-07-11T22:45:40.136Z,6.47
2018-07-11T22:48:07.357Z,6.23
2018-07-11T22:50:34.559Z,5.93
2018-07-11T22:53:01.766Z,5.83
2018-07-11T22:55:28.980Z,5.77
2018-07-11T22:57:56.200Z,6.10
2018-07-11T23:00:23.408Z,6.27
2018-07-11T23:02:50.612Z,6.00
2018-07-11T23:05:17.828Z,6.40
2018-07-11T23:07:45.045Z,6.53
2018-07-11T23:10:12.271Z,7.07
2018-07-11T23:12:39.482Z,7.03
2018-07-11T23:15:06.688Z,6.43
2018-07-11T23:17:33.900Z,6.50
2018-07-11T23:20:01.104Z,6.77
2018-07-11T23:22:28.321Z,6.00
2018-07-11T23:24:55.528Z,6.70
2018-07-11T23:27:22.728Z,7.00
2018-07-11T23:29:49.948Z,6.20
2018-07-11T23:32:17.145Z,7.00
2018-07-11T23:34:44.353Z,6.70
2018-07-11T23:37:11.560Z,6.47
2018-07-11T23:39:38.782Z,6.70
2018-07-11T23:42:05.983Z,6.90
2018-07-11T23:44:33.188Z,7.23
2018-07-11T23:47:00.396Z,6.83
2018-07-11T23:49:27.608Z,7.00
2018-07-11T23:51:54.821Z,7.10
2018-07-11T23:54:22.022Z,6.73
2018-07-11T23:56:49.237Z,7.63
2018-07-11T23:59:16.444Z,7.03
